LIMELIBP

Guest
Details From LIME - Bergamo Orio Al Serio
To LIBP - PESCARA
Flight Number -
Tags decoded
Created
Modified
Stats Distance 287 nm / 531 km
Max Altitude 0 ft / 0 m
Waypoints 5
Social Downloads 6
Likes 0
Share VATSIM

Download

Looking for another format? Having issues loading an existing format? Contact us
Advertisement - Login to hide

Notes

Requested: LIME LOGDI UT293 LURUT UY11 PETAS UY765 ANC UL612 NUTRO Y579 INKIM LIBP Unmatched points: LOGDI UT293 LURUT UY11 UY765 Y579

Route

LIME ANC UL612 NUTRO INKIM LIBP

ID Type Via Altitude Latitude Longitude Leg Dist Tot Dist Heading (true) Name
O LIME APT - 0 ft / 0 m 45.67200˚ 9.70689˚ - 0 nm - Bergamo Orio Al Serio
ANC NDB - 0 ft / 0 m 43.58667˚ 13.47222˚ 203 nm 203 nm 127° / 129° ANCONA NDB
NUTRO FIX UL612 (AWY-HI) 0 ft / 0 m 43.16000˚ 14.14917˚ 39 nm 242 nm 131° / 131° -
INKIM FIX - 0 ft / 0 m 42.83630˚ 14.17163˚ 19 nm 262 nm 177° / 177° -
O LIBP APT - 0 ft / 0 m 42.43126˚ 14.18303˚ 24 nm 286 nm 179° / 179° PESCARA

Altitude Profile

Advertisement - Login to hide

Weather


0- 5 10 15 20 25 30 35+ Temperature / ° C

Clouds and Precipitation
Forecast for 2018-05-25 12:00 UTC. Updated 21 minutes ago

Ground ~20,000 ft ~40,000 ft Winds

LIME

Details ICAO LIME (BGY)
Name Bergamo Orio Al Serio
Region Italy
Timezone Europe/Rome (UTC+2.0)
Stats Elevation 779 ft / 237 m (AMSL)
Location 45.672004° 9.706892°
Runways 2
Magnetic Variation 2.654° E

METAR

LIME 250920Z 27004KT 210V020 CAVOK 24/16 Q1016 NOSIG

Decode

TAF

TAF LIME 250500Z 2506/2606 VRB05KT CAVOK

Decode

Departure Runways

ID Width Length Bearing (true) Bearing (mag) Surface Threshold Offset Overrun Length
10 148 ft / 45 m 9,897 ft / 3,017 m 104.89° 102.24° Asphalt 312 ft / 95 m 0 ft / 0 m
12 59 ft / 18 m 2,665 ft / 812 m 121.47° 118.82° Asphalt 197 ft / 60 m 0 ft / 0 m
28 148 ft / 45 m 9,897 ft / 3,017 m 284.91° 282.26° Asphalt 712 ft / 217 m 0 ft / 0 m
30 59 ft / 18 m 2,665 ft / 812 m 301.48° 298.83° Asphalt 312 ft / 95 m 0 ft / 0 m

LIBP

Details ICAO LIBP (PSR)
Name PESCARA
Region Italy
Timezone Europe/Rome (UTC+2.0)
Stats Elevation 48 ft / 15 m (AMSL)
Location 42.431257° 14.183030°
Runways 1
Magnetic Variation 3.428° E

METAR

LIBP 250850Z 02007KT 340V060 CAVOK 26/18 Q1015

Decode

TAF

TAF LIBP 250500Z 2506/2606 VRB05KT 9999 FEW030 BECMG 2508/2510 03010KT BECMG 2516/2518 VRB05KT

Decode

Destination Runways

ID Width Length Bearing (true) Bearing (mag) Surface Threshold Offset Overrun Length
04 148 ft / 45 m 7,943 ft / 2,421 m 37.19° 33.76° Asphalt 344 ft / 105 m 0 ft / 0 m
22 148 ft / 45 m 7,943 ft / 2,421 m 217.21° 213.78° Asphalt 617 ft / 188 m 0 ft / 0 m

Approach Navaids

Runway Type Ident Frequency Range Bearing (true) Bearing (mag) Slope Elevation
22 Localiser IPS 110.70 MHz 18 nm / 33 km 217.39° 213.96° - 48 ft / 15 m (AMSL)
22 Glidescope IPS 110.70 MHz 10 nm / 19 km 217.20° 213.77° 3.00° 48 ft / 15 m (AMSL)
22 DME IPS 110.70 MHz 18 nm / 33 km - - - 48 ft / 15 m (AMSL)

Popular Alternatives